sensor_id;sensor_type;location;lat;lon;timestamp;P1;durP1;ratioP1;P2;durP2;ratioP2
62931;SDS011;49037;41.898;25.004;2024-02-23T00:00:50;8.77;;;3.92;;
62931;SDS011;49037;41.898;25.004;2024-02-23T00:03:15;5.03;;;3.65;;
62931;SDS011;49037;41.898;25.004;2024-02-23T00:05:41;7.53;;;3.95;;
62931;SDS011;49037;41.898;25.004;2024-02-23T00:08:06;7.28;;;4.25;;
62931;SDS011;49037;41.898;25.004;2024-02-23T00:10:32;8.07;;;4.10;;
62931;SDS011;49037;41.898;25.004;2024-02-23T00:12:57;8.82;;;4.18;;
62931;SDS011;49037;41.898;25.004;2024-02-23T00:15:23;7.15;;;4.15;;
62931;SDS011;49037;41.898;25.004;2024-02-23T00:17:50;7.20;;;3.80;;
62931;SDS011;49037;41.898;25.004;2024-02-23T00:20:15;7.72;;;4.07;;
62931;SDS011;49037;41.898;25.004;2024-02-23T00:22:41;7.40;;;3.85;;
62931;SDS011;49037;41.898;25.004;2024-02-23T00:25:07;8.68;;;4.10;;
62931;SDS011;49037;41.898;25.004;2024-02-23T00:27:32;7.93;;;4.15;;
62931;SDS011;49037;41.898;25.004;2024-02-23T00:29:58;6.90;;;3.97;;
62931;SDS011;49037;41.898;25.004;2024-02-23T00:32:24;8.45;;;4.25;;
62931;SDS011;49037;41.898;25.004;2024-02-23T00:34:49;6.50;;;3.47;;
62931;SDS011;49037;41.898;25.004;2024-02-23T00:37:15;8.35;;;4.35;;
62931;SDS011;49037;41.898;25.004;2024-02-23T00:39:40;6.72;;;3.70;;
62931;SDS011;49037;41.898;25.004;2024-02-23T00:42:06;8.45;;;4.75;;
62931;SDS011;49037;41.898;25.004;2024-02-23T00:44:32;10.05;;;4.57;;
62931;SDS011;49037;41.898;25.004;2024-02-23T00:46:58;5.47;;;3.45;;
62931;SDS011;49037;41.898;25.004;2024-02-23T00:49:26;7.38;;;4.18;;
62931;SDS011;49037;41.898;25.004;2024-02-23T00:51:53;7.50;;;4.30;;
62931;SDS011;49037;41.898;25.004;2024-02-23T00:54:18;6.88;;;4.03;;
62931;SDS011;49037;41.898;25.004;2024-02-23T00:56:45;9.98;;;4.68;;
62931;SDS011;49037;41.898;25.004;2024-02-23T00:59:10;9.57;;;4.30;;
62931;SDS011;49037;41.898;25.004;2024-02-23T01:01:36;7.68;;;3.67;;
62931;SDS011;49037;41.898;25.004;2024-02-23T01:04:01;8.35;;;4.05;;
62931;SDS011;49037;41.898;25.004;2024-02-23T01:06:27;6.53;;;3.83;;
62931;SDS011;49037;41.898;25.004;2024-02-23T01:08:53;7.68;;;4.22;;
62931;SDS011;49037;41.898;25.004;2024-02-23T01:11:19;8.18;;;3.80;;
62931;SDS011;49037;41.898;25.004;2024-02-23T01:13:44;8.73;;;4.43;;
62931;SDS011;49037;41.898;25.004;2024-02-23T01:16:11;6.13;;;3.90;;
62931;SDS011;49037;41.898;25.004;2024-02-23T01:18:36;9.15;;;4.57;;
62931;SDS011;49037;41.898;25.004;2024-02-23T01:21:02;8.88;;;4.25;;
62931;SDS011;49037;41.898;25.004;2024-02-23T01:23:28;6.97;;;3.58;;
62931;SDS011;49037;41.898;25.004;2024-02-23T01:25:53;7.10;;;4.18;;
62931;SDS011;49037;41.898;25.004;2024-02-23T01:28:20;7.18;;;4.38;;
62931;SDS011;49037;41.898;25.004;2024-02-23T01:30:46;9.00;;;3.85;;
62931;SDS011;49037;41.898;25.004;2024-02-23T01:33:11;7.70;;;4.28;;
62931;SDS011;49037;41.898;25.004;2024-02-23T01:35:37;7.75;;;4.18;;
62931;SDS011;49037;41.898;25.004;2024-02-23T01:38:02;8.75;;;3.67;;
62931;SDS011;49037;41.898;25.004;2024-02-23T01:40:28;8.35;;;3.55;;
62931;SDS011;49037;41.898;25.004;2024-02-23T01:45:31;6.97;;;4.13;;
62931;SDS011;49037;41.898;25.004;2024-02-23T01:47:57;5.85;;;3.58;;
62931;SDS011;49037;41.898;25.004;2024-02-23T01:50:24;6.80;;;3.67;;
62931;SDS011;49037;41.898;25.004;2024-02-23T01:52:50;8.10;;;4.38;;
62931;SDS011;49037;41.898;25.004;2024-02-23T01:55:19;9.55;;;4.05;;
62931;SDS011;49037;41.898;25.004;2024-02-23T01:57:47;7.50;;;3.70;;
62931;SDS011;49037;41.898;25.004;2024-02-23T02:00:15;6.13;;;3.70;;
62931;SDS011;49037;41.898;25.004;2024-02-23T02:02:42;6.30;;;3.95;;
62931;SDS011;49037;41.898;25.004;2024-02-23T02:05:09;7.72;;;3.67;;
62931;SDS011;49037;41.898;25.004;2024-02-23T02:07:37;5.93;;;3.95;;
62931;SDS011;49037;41.898;25.004;2024-02-23T02:10:06;8.13;;;4.32;;
62931;SDS011;49037;41.898;25.004;2024-02-23T02:12:34;7.80;;;4.10;;
62931;SDS011;49037;41.898;25.004;2024-02-23T02:15:01;10.48;;;4.72;;
62931;SDS011;49037;41.898;25.004;2024-02-23T02:17:27;9.35;;;4.40;;
62931;SDS011;49037;41.898;25.004;2024-02-23T02:19:54;7.03;;;4.30;;
62931;SDS011;49037;41.898;25.004;2024-02-23T02:22:20;9.77;;;4.30;;
62931;SDS011;49037;41.898;25.004;2024-02-23T02:24:45;8.40;;;4.03;;
62931;SDS011;49037;41.898;25.004;2024-02-23T02:27:13;8.90;;;4.88;;
62931;SDS011;49037;41.898;25.004;2024-02-23T02:29:39;6.45;;;3.75;;
62931;SDS011;49037;41.898;25.004;2024-02-23T02:32:04;12.57;;;4.63;;
62931;SDS011;49037;41.898;25.004;2024-02-23T02:34:30;8.02;;;4.05;;
62931;SDS011;49037;41.898;25.004;2024-02-23T02:36:55;9.85;;;4.38;;
62931;SDS011;49037;41.898;25.004;2024-02-23T02:39:21;10.23;;;3.90;;
62931;SDS011;49037;41.898;25.004;2024-02-23T02:41:47;8.57;;;4.10;;
62931;SDS011;49037;41.898;25.004;2024-02-23T02:44:14;9.73;;;4.40;;
62931;SDS011;49037;41.898;25.004;2024-02-23T02:46:40;7.60;;;4.20;;
62931;SDS011;49037;41.898;25.004;2024-02-23T02:49:07;10.43;;;4.53;;
62931;SDS011;49037;41.898;25.004;2024-02-23T02:51:33;7.72;;;4.18;;
62931;SDS011;49037;41.898;25.004;2024-02-23T02:53:58;8.88;;;4.45;;
62931;SDS011;49037;41.898;25.004;2024-02-23T02:56:24;8.02;;;4.57;;
62931;SDS011;49037;41.898;25.004;2024-02-23T02:58:49;7.13;;;3.97;;
62931;SDS011;49037;41.898;25.004;2024-02-23T03:01:15;6.60;;;4.22;;
62931;SDS011;49037;41.898;25.004;2024-02-23T03:03:41;9.27;;;4.18;;
62931;SDS011;49037;41.898;25.004;2024-02-23T03:06:06;7.10;;;4.10;;
62931;SDS011;49037;41.898;25.004;2024-02-23T03:08:33;8.45;;;4.47;;
62931;SDS011;49037;41.898;25.004;2024-02-23T03:10:58;9.80;;;3.95;;
62931;SDS011;49037;41.898;25.004;2024-02-23T03:13:24;8.15;;;5.00;;
62931;SDS011;49037;41.898;25.004;2024-02-23T03:15:49;7.57;;;3.80;;
62931;SDS011;49037;41.898;25.004;2024-02-23T03:18:15;7.00;;;3.92;;
62931;SDS011;49037;41.898;25.004;2024-02-23T03:20:42;8.32;;;3.83;;
62931;SDS011;49037;41.898;25.004;2024-02-23T03:23:08;7.97;;;4.40;;
62931;SDS011;49037;41.898;25.004;2024-02-23T03:25:33;8.85;;;4.50;;
62931;SDS011;49037;41.898;25.004;2024-02-23T03:27:59;7.95;;;4.45;;
62931;SDS011;49037;41.898;25.004;2024-02-23T03:30:24;7.70;;;4.03;;
62931;SDS011;49037;41.898;25.004;2024-02-23T03:32:50;7.55;;;4.22;;
62931;SDS011;49037;41.898;25.004;2024-02-23T03:35:15;7.80;;;4.35;;
62931;SDS011;49037;41.898;25.004;2024-02-23T03:37:41;7.88;;;4.38;;
62931;SDS011;49037;41.898;25.004;2024-02-23T03:40:06;9.90;;;4.15;;
62931;SDS011;49037;41.898;25.004;2024-02-23T03:42:32;6.53;;;3.15;;
62931;SDS011;49037;41.898;25.004;2024-02-23T03:44:58;6.38;;;3.72;;
62931;SDS011;49037;41.898;25.004;2024-02-23T03:47:24;8.00;;;4.47;;
62931;SDS011;49037;41.898;25.004;2024-02-23T03:49:50;7.28;;;3.83;;
62931;SDS011;49037;41.898;25.004;2024-02-23T03:52:16;8.25;;;3.72;;
62931;SDS011;49037;41.898;25.004;2024-02-23T03:54:41;8.10;;;3.92;;
62931;SDS011;49037;41.898;25.004;2024-02-23T03:57:07;7.95;;;3.75;;
62931;SDS011;49037;41.898;25.004;2024-02-23T03:59:35;7.18;;;4.53;;
62931;SDS011;49037;41.898;25.004;2024-02-23T04:02:01;4.95;;;3.08;;
62931;SDS011;49037;41.898;25.004;2024-02-23T04:04:26;11.40;;;4.72;;
62931;SDS011;49037;41.898;25.004;2024-02-23T04:06:52;6.93;;;4.10;;
62931;SDS011;49037;41.898;25.004;2024-02-23T04:09:17;8.10;;;4.25;;
62931;SDS011;49037;41.898;25.004;2024-02-23T04:11:46;8.32;;;4.50;;
62931;SDS011;49037;41.898;25.004;2024-02-23T04:14:33;9.35;;;4.85;;
62931;SDS011;49037;41.898;25.004;2024-02-23T04:17:02;8.23;;;3.92;;
62931;SDS011;49037;41.898;25.004;2024-02-23T04:19:29;7.97;;;4.10;;
62931;SDS011;49037;41.898;25.004;2024-02-23T04:21:55;7.88;;;4.10;;
62931;SDS011;49037;41.898;25.004;2024-02-23T04:24:21;7.45;;;3.60;;
62931;SDS011;49037;41.898;25.004;2024-02-23T04:26:46;6.70;;;3.70;;
62931;SDS011;49037;41.898;25.004;2024-02-23T04:29:12;8.02;;;3.92;;
62931;SDS011;49037;41.898;25.004;2024-02-23T04:31:39;10.32;;;3.90;;
62931;SDS011;49037;41.898;25.004;2024-02-23T04:34:04;7.75;;;3.97;;
62931;SDS011;49037;41.898;25.004;2024-02-23T04:36:30;7.38;;;4.20;;
62931;SDS011;49037;41.898;25.004;2024-02-23T04:38:55;6.13;;;4.03;;
62931;SDS011;49037;41.898;25.004;2024-02-23T04:41:22;8.27;;;4.15;;
62931;SDS011;49037;41.898;25.004;2024-02-23T04:44:07;5.35;;;3.03;;
62931;SDS011;49037;41.898;25.004;2024-02-23T04:46:33;8.70;;;4.65;;
62931;SDS011;49037;41.898;25.004;2024-02-23T04:49:02;5.97;;;3.83;;
62931;SDS011;49037;41.898;25.004;2024-02-23T04:51:27;8.15;;;4.30;;
62931;SDS011;49037;41.898;25.004;2024-02-23T04:53:53;6.55;;;3.67;;
62931;SDS011;49037;41.898;25.004;2024-02-23T04:56:19;5.80;;;4.05;;
62931;SDS011;49037;41.898;25.004;2024-02-23T04:58:46;8.13;;;4.05;;
62931;SDS011;49037;41.898;25.004;2024-02-23T05:01:12;6.82;;;3.67;;
62931;SDS011;49037;41.898;25.004;2024-02-23T05:03:38;9.23;;;3.78;;
62931;SDS011;49037;41.898;25.004;2024-02-23T05:06:03;9.18;;;4.05;;
62931;SDS011;49037;41.898;25.004;2024-02-23T05:08:30;5.90;;;3.70;;
62931;SDS011;49037;41.898;25.004;2024-02-23T05:10:58;6.85;;;3.45;;
62931;SDS011;49037;41.898;25.004;2024-02-23T05:14:03;5.40;;;3.22;;
62931;SDS011;49037;41.898;25.004;2024-02-23T05:16:29;5.93;;;3.80;;
62931;SDS011;49037;41.898;25.004;2024-02-23T05:18:54;5.68;;;3.67;;
62931;SDS011;49037;41.898;25.004;2024-02-23T05:21:20;6.18;;;3.60;;
62931;SDS011;49037;41.898;25.004;2024-02-23T05:23:45;5.70;;;3.33;;
62931;SDS011;49037;41.898;25.004;2024-02-23T05:26:11;5.88;;;3.83;;
62931;SDS011;49037;41.898;25.004;2024-02-23T05:28:38;7.65;;;4.03;;
62931;SDS011;49037;41.898;25.004;2024-02-23T05:31:04;8.02;;;4.22;;
62931;SDS011;49037;41.898;25.004;2024-02-23T05:33:30;6.18;;;3.40;;
62931;SDS011;49037;41.898;25.004;2024-02-23T05:35:56;7.80;;;3.53;;
62931;SDS011;49037;41.898;25.004;2024-02-23T05:38:22;7.82;;;3.50;;
62931;SDS011;49037;41.898;25.004;2024-02-23T05:40:58;6.63;;;3.97;;
62931;SDS011;49037;41.898;25.004;2024-02-23T05:43:24;6.45;;;3.45;;
62931;SDS011;49037;41.898;25.004;2024-02-23T05:45:49;6.40;;;3.25;;
62931;SDS011;49037;41.898;25.004;2024-02-23T05:48:15;7.28;;;3.47;;
62931;SDS011;49037;41.898;25.004;2024-02-23T05:50:40;7.85;;;4.05;;
62931;SDS011;49037;41.898;25.004;2024-02-23T05:53:06;5.20;;;3.17;;
62931;SDS011;49037;41.898;25.004;2024-02-23T05:55:31;6.28;;;3.42;;
62931;SDS011;49037;41.898;25.004;2024-02-23T05:57:57;6.80;;;3.42;;
62931;SDS011;49037;41.898;25.004;2024-02-23T06:00:22;6.78;;;3.50;;
62931;SDS011;49037;41.898;25.004;2024-02-23T06:02:48;6.63;;;3.45;;
62931;SDS011;49037;41.898;25.004;2024-02-23T06:05:13;6.35;;;3.42;;
62931;SDS011;49037;41.898;25.004;2024-02-23T06:07:39;5.95;;;3.65;;
62931;SDS011;49037;41.898;25.004;2024-02-23T06:10:06;7.07;;;3.75;;
62931;SDS011;49037;41.898;25.004;2024-02-23T06:12:32;7.72;;;3.90;;
62931;SDS011;49037;41.898;25.004;2024-02-23T06:14:59;8.07;;;4.30;;
62931;SDS011;49037;41.898;25.004;2024-02-23T06:17:26;8.18;;;3.92;;
62931;SDS011;49037;41.898;25.004;2024-02-23T06:19:52;6.82;;;3.85;;
62931;SDS011;49037;41.898;25.004;2024-02-23T06:22:21;6.72;;;3.53;;
62931;SDS011;49037;41.898;25.004;2024-02-23T06:24:50;6.60;;;3.30;;
62931;SDS011;49037;41.898;25.004;2024-02-23T06:27:16;6.72;;;3.60;;
62931;SDS011;49037;41.898;25.004;2024-02-23T06:29:42;8.52;;;3.90;;
62931;SDS011;49037;41.898;25.004;2024-02-23T06:32:08;6.53;;;3.42;;
62931;SDS011;49037;41.898;25.004;2024-02-23T06:34:33;5.15;;;3.20;;
62931;SDS011;49037;41.898;25.004;2024-02-23T06:36:59;8.30;;;3.97;;
62931;SDS011;49037;41.898;25.004;2024-02-23T06:39:24;7.00;;;3.67;;
62931;SDS011;49037;41.898;25.004;2024-02-23T06:41:51;4.88;;;3.03;;
62931;SDS011;49037;41.898;25.004;2024-02-23T06:44:16;7.38;;;3.53;;
62931;SDS011;49037;41.898;25.004;2024-02-23T06:46:42;7.28;;;3.47;;
62931;SDS011;49037;41.898;25.004;2024-02-23T06:49:09;6.70;;;3.13;;
62931;SDS011;49037;41.898;25.004;2024-02-23T06:51:35;7.20;;;3.42;;
62931;SDS011;49037;41.898;25.004;2024-02-23T06:54:00;4.22;;;3.00;;
62931;SDS011;49037;41.898;25.004;2024-02-23T06:56:28;6.05;;;3.50;;
62931;SDS011;49037;41.898;25.004;2024-02-23T06:58:54;5.45;;;3.38;;
62931;SDS011;49037;41.898;25.004;2024-02-23T07:01:20;7.88;;;4.57;;
62931;SDS011;49037;41.898;25.004;2024-02-23T07:03:48;8.10;;;4.07;;
62931;SDS011;49037;41.898;25.004;2024-02-23T07:06:16;19.63;;;9.13;;
62931;SDS011;49037;41.898;25.004;2024-02-23T07:08:43;13.10;;;6.35;;
62931;SDS011;49037;41.898;25.004;2024-02-23T07:11:09;12.82;;;6.82;;
62931;SDS011;49037;41.898;25.004;2024-02-23T07:13:36;18.23;;;9.55;;
62931;SDS011;49037;41.898;25.004;2024-02-23T07:16:02;17.67;;;8.55;;
62931;SDS011;49037;41.898;25.004;2024-02-23T07:18:28;19.40;;;8.05;;
62931;SDS011;49037;41.898;25.004;2024-02-23T07:20:53;16.40;;;8.32;;
62931;SDS011;49037;41.898;25.004;2024-02-23T07:23:19;23.73;;;9.55;;
62931;SDS011;49037;41.898;25.004;2024-02-23T07:25:44;20.80;;;10.40;;
62931;SDS011;49037;41.898;25.004;2024-02-23T07:28:10;26.17;;;11.50;;
62931;SDS011;49037;41.898;25.004;2024-02-23T07:30:37;26.30;;;11.02;;
62931;SDS011;49037;41.898;25.004;2024-02-23T07:33:02;30.42;;;13.63;;
62931;SDS011;49037;41.898;25.004;2024-02-23T07:35:28;25.75;;;12.73;;
62931;SDS011;49037;41.898;25.004;2024-02-23T07:37:54;27.98;;;12.05;;
62931;SDS011;49037;41.898;25.004;2024-02-23T07:40:20;24.00;;;12.43;;
62931;SDS011;49037;41.898;25.004;2024-02-23T07:42:46;17.02;;;9.13;;
62931;SDS011;49037;41.898;25.004;2024-02-23T07:45:12;19.95;;;9.10;;
62931;SDS011;49037;41.898;25.004;2024-02-23T07:47:38;18.17;;;8.82;;
62931;SDS011;49037;41.898;25.004;2024-02-23T07:50:03;17.80;;;9.00;;
62931;SDS011;49037;41.898;25.004;2024-02-23T07:52:33;18.25;;;9.30;;
62931;SDS011;49037;41.898;25.004;2024-02-23T07:54:58;18.13;;;10.15;;
62931;SDS011;49037;41.898;25.004;2024-02-23T07:57:27;19.48;;;9.88;;
62931;SDS011;49037;41.898;25.004;2024-02-23T07:59:54;22.42;;;10.27;;
62931;SDS011;49037;41.898;25.004;2024-02-23T08:02:20;19.48;;;9.00;;
62931;SDS011;49037;41.898;25.004;2024-02-23T08:04:45;16.75;;;8.95;;
62931;SDS011;49037;41.898;25.004;2024-02-23T08:07:12;20.15;;;9.00;;
62931;SDS011;49037;41.898;25.004;2024-02-23T08:09:38;18.58;;;10.55;;
62931;SDS011;49037;41.898;25.004;2024-02-23T08:12:04;19.40;;;8.77;;
62931;SDS011;49037;41.898;25.004;2024-02-23T08:14:30;19.88;;;9.32;;
62931;SDS011;49037;41.898;25.004;2024-02-23T08:16:55;21.30;;;11.30;;
62931;SDS011;49037;41.898;25.004;2024-02-23T08:19:21;21.45;;;9.95;;
62931;SDS011;49037;41.898;25.004;2024-02-23T08:21:46;21.15;;;10.38;;
62931;SDS011;49037;41.898;25.004;2024-02-23T08:24:12;18.52;;;9.57;;
62931;SDS011;49037;41.898;25.004;2024-02-23T08:26:37;18.52;;;9.25;;
62931;SDS011;49037;41.898;25.004;2024-02-23T08:29:03;24.63;;;11.30;;
62931;SDS011;49037;41.898;25.004;2024-02-23T08:31:29;33.53;;;13.70;;
62931;SDS011;49037;41.898;25.004;2024-02-23T08:33:55;25.58;;;11.80;;
62931;SDS011;49037;41.898;25.004;2024-02-23T08:36:20;28.38;;;11.88;;
62931;SDS011;49037;41.898;25.004;2024-02-23T08:38:46;25.88;;;12.57;;
62931;SDS011;49037;41.898;25.004;2024-02-23T08:41:11;25.75;;;11.50;;
62931;SDS011;49037;41.898;25.004;2024-02-23T08:43:37;19.92;;;10.32;;
62931;SDS011;49037;41.898;25.004;2024-02-23T08:46:02;19.38;;;10.55;;
62931;SDS011;49037;41.898;25.004;2024-02-23T08:48:28;19.00;;;10.80;;
62931;SDS011;49037;41.898;25.004;2024-02-23T08:50:53;18.90;;;10.15;;
62931;SDS011;49037;41.898;25.004;2024-02-23T08:53:19;20.95;;;10.55;;
62931;SDS011;49037;41.898;25.004;2024-02-23T08:55:45;20.73;;;10.40;;
62931;SDS011;49037;41.898;25.004;2024-02-23T08:58:10;20.45;;;9.93;;
62931;SDS011;49037;41.898;25.004;2024-02-23T09:00:36;23.08;;;10.40;;
62931;SDS011;49037;41.898;25.004;2024-02-23T09:04:35;17.75;;;9.55;;
62931;SDS011;49037;41.898;25.004;2024-02-23T09:07:02;16.70;;;9.32;;
62931;SDS011;49037;41.898;25.004;2024-02-23T09:10:06;14.27;;;8.15;;
62931;SDS011;49037;41.898;25.004;2024-02-23T09:16:36;17.17;;;9.02;;
62931;SDS011;49037;41.898;25.004;2024-02-23T09:19:01;15.30;;;7.45;;
62931;SDS011;49037;41.898;25.004;2024-02-23T09:21:28;15.57;;;8.73;;
62931;SDS011;49037;41.898;25.004;2024-02-23T09:25:16;15.63;;;8.20;;
62931;SDS011;49037;41.898;25.004;2024-02-23T09:27:43;16.92;;;8.93;;
62931;SDS011;49037;41.898;25.004;2024-02-23T09:30:12;17.20;;;9.05;;
62931;SDS011;49037;41.898;25.004;2024-02-23T09:32:39;15.13;;;8.68;;
62931;SDS011;49037;41.898;25.004;2024-02-23T09:36:04;15.23;;;10.23;;
62931;SDS011;49037;41.898;25.004;2024-02-23T09:38:30;17.70;;;9.77;;
62931;SDS011;49037;41.898;25.004;2024-02-23T09:40:57;15.73;;;9.25;;
62931;SDS011;49037;41.898;25.004;2024-02-23T09:43:23;18.70;;;9.25;;
62931;SDS011;49037;41.898;25.004;2024-02-23T09:45:54;17.70;;;8.98;;
62931;SDS011;49037;41.898;25.004;2024-02-23T09:48:21;17.40;;;8.65;;
62931;SDS011;49037;41.898;25.004;2024-02-23T09:50:51;18.15;;;9.60;;
62931;SDS011;49037;41.898;25.004;2024-02-23T09:53:49;17.27;;;9.23;;
62931;SDS011;49037;41.898;25.004;2024-02-23T09:56:16;15.32;;;8.45;;
62931;SDS011;49037;41.898;25.004;2024-02-23T10:01:32;18.00;;;9.93;;
62931;SDS011;49037;41.898;25.004;2024-02-23T10:04:19;19.40;;;10.30;;
62931;SDS011;49037;41.898;25.004;2024-02-23T10:06:47;14.57;;;9.35;;
62931;SDS011;49037;41.898;25.004;2024-02-23T10:09:17;15.02;;;8.95;;
62931;SDS011;49037;41.898;25.004;2024-02-23T10:11:46;15.65;;;8.50;;
62931;SDS011;49037;41.898;25.004;2024-02-23T10:14:18;17.08;;;9.55;;
62931;SDS011;49037;41.898;25.004;2024-02-23T10:18:12;16.08;;;8.30;;
62931;SDS011;49037;41.898;25.004;2024-02-23T10:20:37;16.48;;;7.88;;
62931;SDS011;49037;41.898;25.004;2024-02-23T10:23:04;15.82;;;8.55;;
62931;SDS011;49037;41.898;25.004;2024-02-23T10:25:30;14.18;;;8.18;;
62931;SDS011;49037;41.898;25.004;2024-02-23T10:27:58;16.10;;;8.30;;
62931;SDS011;49037;41.898;25.004;2024-02-23T10:32:30;16.00;;;8.30;;
62931;SDS011;49037;41.898;25.004;2024-02-23T10:35:20;12.80;;;8.18;;
62931;SDS011;49037;41.898;25.004;2024-02-23T10:38:20;16.48;;;8.77;;
62931;SDS011;49037;41.898;25.004;2024-02-23T10:40:48;18.05;;;10.40;;
62931;SDS011;49037;41.898;25.004;2024-02-23T10:43:16;18.17;;;9.30;;
62931;SDS011;49037;41.898;25.004;2024-02-23T10:45:46;14.10;;;8.27;;
62931;SDS011;49037;41.898;25.004;2024-02-23T10:48:19;15.23;;;9.00;;
62931;SDS011;49037;41.898;25.004;2024-02-23T10:50:48;13.60;;;8.48;;
62931;SDS011;49037;41.898;25.004;2024-02-23T10:53:14;14.88;;;8.25;;
62931;SDS011;49037;41.898;25.004;2024-02-23T10:55:45;13.77;;;8.43;;
62931;SDS011;49037;41.898;25.004;2024-02-23T10:58:19;14.88;;;8.20;;
62931;SDS011;49037;41.898;25.004;2024-02-23T11:01:10;15.50;;;9.07;;
62931;SDS011;49037;41.898;25.004;2024-02-23T11:03:42;14.40;;;8.43;;
62931;SDS011;49037;41.898;25.004;2024-02-23T11:06:12;16.23;;;9.20;;
62931;SDS011;49037;41.898;25.004;2024-02-23T11:08:45;16.33;;;9.30;;
62931;SDS011;49037;41.898;25.004;2024-02-23T11:11:15;15.38;;;8.70;;
62931;SDS011;49037;41.898;25.004;2024-02-23T11:14:07;15.75;;;9.23;;
62931;SDS011;49037;41.898;25.004;2024-02-23T11:16:41;15.30;;;9.27;;
62931;SDS011;49037;41.898;25.004;2024-02-23T11:19:09;18.08;;;9.02;;
62931;SDS011;49037;41.898;25.004;2024-02-23T11:21:43;15.70;;;9.35;;
62931;SDS011;49037;41.898;25.004;2024-02-23T11:24:29;15.55;;;9.18;;
62931;SDS011;49037;41.898;25.004;2024-02-23T11:27:13;18.58;;;10.13;;
62931;SDS011;49037;41.898;25.004;2024-02-23T11:29:52;14.95;;;9.02;;
62931;SDS011;49037;41.898;25.004;2024-02-23T11:32:47;19.05;;;10.23;;
62931;SDS011;49037;41.898;25.004;2024-02-23T11:35:19;19.38;;;10.13;;
62931;SDS011;49037;41.898;25.004;2024-02-23T11:37:58;17.30;;;9.02;;
62931;SDS011;49037;41.898;25.004;2024-02-23T11:40:37;15.23;;;8.45;;
62931;SDS011;49037;41.898;25.004;2024-02-23T11:43:57;15.73;;;9.27;;
62931;SDS011;49037;41.898;25.004;2024-02-23T11:46:45;16.00;;;8.93;;
62931;SDS011;49037;41.898;25.004;2024-02-23T11:49:51;15.52;;;8.93;;
62931;SDS011;49037;41.898;25.004;2024-02-23T11:52:47;15.05;;;8.93;;
62931;SDS011;49037;41.898;25.004;2024-02-23T11:55:54;16.33;;;8.95;;
62931;SDS011;49037;41.898;25.004;2024-02-23T11:58:50;15.07;;;9.05;;
62931;SDS011;49037;41.898;25.004;2024-02-23T12:02:40;14.52;;;7.93;;
62931;SDS011;49037;41.898;25.004;2024-02-23T15:00:16;16.27;;;8.88;;
62931;SDS011;49037;41.898;25.004;2024-02-23T15:07:10;14.18;;;8.50;;
62931;SDS011;49037;41.898;25.004;2024-02-23T15:09:46;14.15;;;8.52;;
62931;SDS011;49037;41.898;25.004;2024-02-23T15:12:40;17.55;;;10.18;;
62931;SDS011;49037;41.898;25.004;2024-02-23T15:15:48;14.25;;;8.48;;
62931;SDS011;49037;41.898;25.004;2024-02-23T15:21:40;20.60;;;11.60;;
62931;SDS011;49037;41.898;25.004;2024-02-23T15:24:26;19.40;;;12.00;;
62931;SDS011;49037;41.898;25.004;2024-02-23T15:27:04;18.98;;;10.88;;
62931;SDS011;49037;41.898;25.004;2024-02-23T15:29:31;13.90;;;8.40;;
62931;SDS011;49037;41.898;25.004;2024-02-23T15:31:59;14.90;;;8.18;;
62931;SDS011;49037;41.898;25.004;2024-02-23T15:34:33;12.85;;;7.70;;
62931;SDS011;49037;41.898;25.004;2024-02-23T15:37:04;12.55;;;7.03;;
62931;SDS011;49037;41.898;25.004;2024-02-23T15:39:49;13.45;;;7.35;;
62931;SDS011;49037;41.898;25.004;2024-02-23T15:42:37;13.88;;;7.65;;
62931;SDS011;49037;41.898;25.004;2024-02-23T15:45:18;12.75;;;6.65;;
62931;SDS011;49037;41.898;25.004;2024-02-23T15:48:08;10.35;;;6.05;;
62931;SDS011;49037;41.898;25.004;2024-02-23T15:50:59;10.65;;;5.53;;
62931;SDS011;49037;41.898;25.004;2024-02-23T15:53:34;10.27;;;5.65;;
62931;SDS011;49037;41.898;25.004;2024-02-23T15:59:38;11.95;;;6.30;;
62931;SDS011;49037;41.898;25.004;2024-02-23T16:02:06;15.70;;;8.73;;
62931;SDS011;49037;41.898;25.004;2024-02-23T16:04:40;9.85;;;6.00;;
62931;SDS011;49037;41.898;25.004;2024-02-23T16:07:08;8.52;;;5.40;;
62931;SDS011;49037;41.898;25.004;2024-02-23T16:09:34;8.00;;;5.25;;
62931;SDS011;49037;41.898;25.004;2024-02-23T16:12:00;7.80;;;5.18;;
62931;SDS011;49037;41.898;25.004;2024-02-23T16:14:29;8.35;;;4.65;;
62931;SDS011;49037;41.898;25.004;2024-02-23T16:16:55;5.38;;;3.35;;
62931;SDS011;49037;41.898;25.004;2024-02-23T16:19:40;14.43;;;8.35;;
62931;SDS011;49037;41.898;25.004;2024-02-23T16:22:25;7.07;;;4.15;;
62931;SDS011;49037;41.898;25.004;2024-02-23T16:24:51;5.60;;;3.92;;
62931;SDS011;49037;41.898;25.004;2024-02-23T16:27:17;6.07;;;5.03;;
62931;SDS011;49037;41.898;25.004;2024-02-23T16:29:45;5.63;;;3.60;;
62931;SDS011;49037;41.898;25.004;2024-02-23T16:32:11;5.00;;;3.70;;
62931;SDS011;49037;41.898;25.004;2024-02-23T16:34:37;5.43;;;3.70;;
62931;SDS011;49037;41.898;25.004;2024-02-23T16:37:04;5.80;;;4.40;;
62931;SDS011;49037;41.898;25.004;2024-02-23T16:39:31;8.80;;;4.38;;
62931;SDS011;49037;41.898;25.004;2024-02-23T16:41:56;7.32;;;3.90;;
62931;SDS011;49037;41.898;25.004;2024-02-23T16:44:22;4.78;;;3.60;;
62931;SDS011;49037;41.898;25.004;2024-02-23T16:46:48;6.95;;;4.68;;
62931;SDS011;49037;41.898;25.004;2024-02-23T16:49:14;7.15;;;4.05;;
62931;SDS011;49037;41.898;25.004;2024-02-23T16:51:40;6.03;;;3.60;;
62931;SDS011;49037;41.898;25.004;2024-02-23T16:54:08;5.03;;;4.07;;
62931;SDS011;49037;41.898;25.004;2024-02-23T16:56:33;5.43;;;3.55;;
62931;SDS011;49037;41.898;25.004;2024-02-23T16:58:59;4.03;;;3.20;;
62931;SDS011;49037;41.898;25.004;2024-02-23T17:01:24;6.45;;;3.72;;
62931;SDS011;49037;41.898;25.004;2024-02-23T17:03:50;4.70;;;3.40;;
62931;SDS011;49037;41.898;25.004;2024-02-23T17:06:15;5.85;;;4.47;;
62931;SDS011;49037;41.898;25.004;2024-02-23T17:08:41;5.30;;;4.07;;
62931;SDS011;49037;41.898;25.004;2024-02-23T17:11:06;6.93;;;3.58;;
62931;SDS011;49037;41.898;25.004;2024-02-23T17:13:32;4.53;;;3.72;;
62931;SDS011;49037;41.898;25.004;2024-02-23T17:15:58;4.18;;;3.20;;
62931;SDS011;49037;41.898;25.004;2024-02-23T17:18:23;4.10;;;3.08;;
62931;SDS011;49037;41.898;25.004;2024-02-23T17:20:50;4.53;;;3.22;;
62931;SDS011;49037;41.898;25.004;2024-02-23T17:23:17;5.38;;;3.75;;
62931;SDS011;49037;41.898;25.004;2024-02-23T17:25:46;5.90;;;4.22;;
62931;SDS011;49037;41.898;25.004;2024-02-23T17:28:11;4.60;;;3.20;;
62931;SDS011;49037;41.898;25.004;2024-02-23T17:30:41;4.25;;;3.05;;
62931;SDS011;49037;41.898;25.004;2024-02-23T17:33:07;3.33;;;2.80;;
62931;SDS011;49037;41.898;25.004;2024-02-23T17:35:32;4.03;;;3.25;;
62931;SDS011;49037;41.898;25.004;2024-02-23T17:37:58;5.05;;;3.58;;
62931;SDS011;49037;41.898;25.004;2024-02-23T17:40:23;4.30;;;3.15;;
62931;SDS011;49037;41.898;25.004;2024-02-23T17:42:54;3.53;;;3.20;;
62931;SDS011;49037;41.898;25.004;2024-02-23T17:45:21;3.90;;;3.17;;
62931;SDS011;49037;41.898;25.004;2024-02-23T17:47:48;3.47;;;3.03;;
62931;SDS011;49037;41.898;25.004;2024-02-23T17:50:14;4.13;;;3.08;;
62931;SDS011;49037;41.898;25.004;2024-02-23T17:52:39;4.53;;;3.17;;
62931;SDS011;49037;41.898;25.004;2024-02-23T17:55:06;4.65;;;3.50;;
62931;SDS011;49037;41.898;25.004;2024-02-23T17:57:55;4.65;;;3.10;;
62931;SDS011;49037;41.898;25.004;2024-02-23T18:00:21;4.28;;;3.13;;
62931;SDS011;49037;41.898;25.004;2024-02-23T18:02:46;4.50;;;3.38;;